Flin Flon, Canada
Current Conditions -  °F | °C
As of 5:00 AM on Sunday 21 Dec 2014 (Local Time) from CYQD Reporting Station
Haze Haze  
Wind Chill: -10°   Ceiling: 400
Heat Index: -5°   Visibility: 1mi
Dew Point: -6°   Wind: 7mph
Humidity: 93%   Direction: 120°ESE
Pressure: 29.63"   Gusts: NA
Location:  54.77°N, 101.88°W
Report Text: CYQD 211100Z 12006KT 1SM BR VV004 M05/M06 A2963 RMK FG8 FROIN SLP053
Loading
Personal Weather Stations






























Interactive Weather Map New forecast layout! Learn more

10-Day Weather Forecast

Advertisements
Track Severe Weather on mobile